Willwood, New York
Current Conditions -  °F | °C
As of 8:56 AM on Friday 28 Nov 2014 (Local Time) from KHWV Reporting Station
Few Clouds Few Clouds  
Wind Chill: 25°   Ceiling: Unl
Heat Index: 35°   Visibility: 10mi
Dew Point: 23°   Wind: 17mph
Humidity: 61%   Direction: 340°NNW
Pressure: 30.14"   Gusts: NA
Location:  40.953°N, 72.8286°W
Report Text: KHWV 281356Z AUTO 34015KT 10SM FEW033 02/M05 A3014 RMK AO2 RAB30E42 SLP205 P0000 T00171050 TSNO $
Loading
Personal Weather Stations






























Interactive Weather Map New forecast layout! Learn more

10-Day Weather Forecast

Advertisements
Track Severe Weather on mobile